Accueil
METAR-TAF:

METAR-TAF

Aéroports :

Florence, Caroline du Sud, États-Unis

latitude: 34-11-16N, longitude: 079-43-51W, altitude: 45 m

Observation

Le bulletin a été fait il y a 1 heure et 5 minutes, à 21:53 UTC
Vent 4 kt de nord/nord-ouest
Température 15°C
Humidité 44%
Pression 1021 hPa
Visibilité: 16.1 km
Ciel clair

METAR: KFLO 202153Z AUTO 34004KT 10SM CLR 15/03 A3015 RMK AO2 SLP209 T01500028

Heure: 17:58 (22:58 UTC)

Prévision

Le bulletin a été fait il y a 5 heures et 38 minutes, à 17:20 UTC
Prévision valable du 20 à 18 UTC au 21 à 18 UTC
Vent 6 kt de nord/nord-ouest
Visibilité: 10 km
Quelques nuages à une hauteur de 9000 ft

TAF: KFLO 201720Z 2018/2118 34006KT P6SM FEW090

Observations et prévisions météorologiques de plus de 4000 aéroports (messages METAR et TAF).

Les stations disponibles sont représentées par des disques jaunes et rouges sur la carte.

Passer la souris dessus pour voir le nom de la station.

Cliquer dessus pour voir les observations et prévisions météorologiques.

Pour changer de carte: cliquez sur les boutons verts avec une croix noire pour zoomer, sur le bouton vert avec un tiret pour effectuer un zoom arrière, ou sur les flèches vertes pour les cartes adjacentes.


METAR-TAF: